Time;durP1;ratioP1;P1;durP2;ratioP2;P2;SDS_P1;SDS_P2;PMS_P1;PMS_P2;Temp;Humidity;BMP_temperature;BMP_pressure;BME280_temperature;BME280_humidity;BME280_pressure;Samples;Min_cycle;Max_cycle;Signal;HPM_P1;HPM_P2
2023/08/10 00:03:18;;;;;;;5.88;3.15;;;;;;;13.24;100.00;101863.94;5092574;28;20042;-81
2023/08/10 00:09:07;;;;;;;4.88;3.30;;;;;;;13.34;100.00;101848.25;5092012;28;20285;-81
2023/08/10 00:14:54;;;;;;;5.65;3.00;;;;;;;13.44;100.00;101861.25;5092236;28;20085;-81
2023/08/10 00:17:20;;;;;;;3.72;2.72;;;;;;;13.37;100.00;101866.66;5075404;28;20039;-81
2023/08/10 00:23:06;;;;;;;8.68;3.03;;;;;;;13.29;100.00;101867.66;5098162;28;20327;-80
2023/08/10 00:28:54;;;;;;;6.60;3.00;;;;;;;13.43;100.00;101865.00;5102836;28;20051;-80
2023/08/10 00:34:42;;;;;;;5.78;3.22;;;;;;;13.36;100.00;101880.28;5095842;28;20380;-81
2023/08/10 00:37:07;;;;;;;8.05;4.07;;;;;;;13.36;100.00;101874.91;5094461;28;20036;-81
2023/08/10 00:42:54;;;;;;;7.47;3.50;;;;;;;13.31;100.00;101868.31;5095308;28;20110;-81
2023/08/10 00:48:41;;;;;;;7.10;3.65;;;;;;;13.31;100.00;101862.13;5095197;28;20390;-80
2023/08/10 00:51:07;;;;;;;7.25;3.05;;;;;;;13.36;100.00;101853.44;5094527;28;20126;-81
2023/08/10 00:53:32;;;;;;;6.00;2.90;;;;;;;13.36;100.00;101856.94;5095270;28;20016;-81
2023/08/10 00:59:19;;;;;;;4.93;3.63;;;;;;;13.35;100.00;101849.91;5096461;28;20042;-80
2023/08/10 01:01:45;;;;;;;4.72;3.55;;;;;;;13.37;100.00;101855.91;5097872;28;20024;-81
2023/08/10 01:04:10;;;;;;;4.70;3.72;;;;;;;13.37;100.00;101852.38;5095022;28;20067;-80
2023/08/10 01:10:06;;;;;;;8.38;3.60;;;;;;;13.32;100.00;101872.66;5096065;28;20198;-80
2023/08/10 01:16:04;;;;;;;5.10;3.33;;;;;;;13.19;100.00;101863.75;5095238;28;20047;-81
2023/08/10 01:22:03;;;;;;;7.35;4.20;;;;;;;13.11;100.00;101862.06;5095227;28;20078;-83
2023/08/10 01:27:50;;;;;;;7.00;4.00;;;;;;;13.09;100.00;101871.34;5093455;28;20111;-82
2023/08/10 01:33:38;;;;;;;6.53;4.13;;;;;;;13.07;100.00;101870.75;5094539;28;20078;-83
2023/08/10 01:36:04;;;;;;;6.60;4.18;;;;;;;13.01;100.00;101870.53;5093597;28;20071;-81
2023/08/10 01:38:29;;;;;;;6.88;4.20;;;;;;;13.04;100.00;101866.59;5076288;28;20024;-81
2023/08/10 01:40:54;;;;;;;6.32;4.25;;;;;;;13.08;100.00;101870.53;5093983;28;20539;-81
2023/08/10 01:43:20;;;;;;;6.17;4.30;;;;;;;13.06;100.00;101874.47;5094149;28;20032;-82
2023/08/10 01:45:49;;;;;;;5.45;3.63;;;;;;;13.03;100.00;101875.69;5094468;28;20285;-81
2023/08/10 01:48:21;;;;;;;6.72;3.75;;;;;;;12.92;100.00;101860.16;5093291;28;20126;-82
2023/08/10 01:54:10;;;;;;;7.63;4.60;;;;;;;12.77;100.00;101859.53;5094388;28;20043;-81
2023/08/10 01:56:36;;;;;;;6.88;4.00;;;;;;;12.67;100.00;101859.91;5076117;28;20031;-81
2023/08/10 01:59:01;;;;;;;6.60;4.07;;;;;;;12.64;100.00;101871.88;5075997;28;20368;-81
2023/08/10 02:04:48;;;;;;;5.68;4.00;;;;;;;12.48;100.00;101861.53;5094520;28;20118;-81
2023/08/10 02:10:35;;;;;;;10.55;4.80;;;;;;;12.33;100.00;101858.97;5094223;28;20058;-81
2023/08/10 02:13:01;;;;;;;7.05;4.10;;;;;;;12.31;100.00;101865.56;5093785;28;20020;-81
2023/08/10 02:15:26;;;;;;;9.93;5.05;;;;;;;12.30;100.00;101874.66;5093119;28;20050;-81
2023/08/10 02:17:51;;;;;;;7.20;4.60;;;;;;;12.23;100.00;101860.41;5093815;28;20371;-81
2023/08/10 02:20:17;;;;;;;8.50;4.75;;;;;;;12.16;100.00;101870.28;5075047;28;20067;-81
2023/08/10 02:22:48;;;;;;;7.47;5.18;;;;;;;12.08;100.00;101869.38;5075547;28;20486;-82
2023/08/10 02:28:35;;;;;;;7.15;4.40;;;;;;;11.89;100.00;101863.94;5093707;28;20043;-81
2023/08/10 02:34:22;;;;;;;8.38;4.90;;;;;;;11.81;100.00;101869.44;5093561;28;20646;-82
2023/08/10 02:36:47;;;;;;;13.45;5.10;;;;;;;11.73;100.00;101871.22;5075394;28;20028;-81
2023/08/10 02:39:12;;;;;;;6.90;4.72;;;;;;;11.71;100.00;101877.78;5092213;28;20136;-81
2023/08/10 02:44:59;;;;;;;9.68;5.30;;;;;;;11.58;100.00;101864.31;5092562;28;20043;-81
2023/08/10 02:47:25;;;;;;;9.07;5.22;;;;;;;11.57;100.00;101868.03;5093280;28;20032;-81
2023/08/10 02:49:50;;;;;;;11.35;5.80;;;;;;;11.56;100.00;101875.22;5093286;28;20120;-81
2023/08/10 02:52:16;;;;;;;8.05;5.22;;;;;;;11.56;100.00;101872.53;5092435;28;20075;-82
2023/08/10 02:54:41;;;;;;;7.47;5.47;;;;;;;11.58;100.00;101875.03;5075054;28;20020;-82
2023/08/10 03:00:28;;;;;;;10.45;5.60;;;;;;;11.58;100.00;101883.91;5093356;28;20552;-80
2023/08/10 03:06:15;;;;;;;14.93;4.97;;;;;;;11.49;100.00;101885.88;5093373;28;20403;-79
2023/08/10 03:12:02;;;;;;;8.27;5.25;;;;;;;11.40;100.00;101887.06;5100249;28;20445;-79
2023/08/10 03:17:49;;;;;;;10.02;5.70;;;;;;;11.46;100.00;101882.75;5104574;28;20487;-78
2023/08/10 03:20:16;;;;;;;7.70;4.80;;;;;;;11.46;100.00;101880.91;5082607;28;20024;-79
2023/08/10 03:22:42;;;;;;;8.30;6.10;;;;;;;11.52;100.00;101891.88;5102888;28;20795;-79
2023/08/10 03:25:08;;;;;;;11.00;6.03;;;;;;;11.53;100.00;101897.03;5101654;28;20051;-79
2023/08/10 03:27:34;;;;;;;8.70;5.32;;;;;;;11.59;100.00;101896.28;5084371;28;20387;-79
2023/08/10 03:29:59;;;;;;;7.93;5.45;;;;;;;11.62;100.00;101892.38;5094304;28;20044;-80
2023/08/10 03:32:25;;;;;;;8.87;5.80;;;;;;;11.65;100.00;101886.63;5074403;28;20040;-80
2023/08/10 03:34:50;;;;;;;10.47;5.60;;;;;;;11.65;100.00;101889.31;5074260;28;20282;-80
2023/08/10 03:40:37;;;;;;;10.38;5.85;;;;;;;11.67;100.00;101884.56;5092466;28;20044;-80
2023/08/10 03:43:03;;;;;;;11.30;5.85;;;;;;;11.67;100.00;101892.63;5091315;28;20071;-81
2023/08/10 03:48:50;;;;;;;11.25;5.25;;;;;;;11.65;100.00;101889.31;5092652;28;20047;-80
2023/08/10 03:51:15;;;;;;;9.20;6.07;;;;;;;11.65;100.00;101881.25;5074599;28;20032;-79
2023/08/10 03:53:40;;;;;;;8.13;5.93;;;;;;;11.66;100.00;101885.59;5095173;28;20368;-79
2023/08/10 03:59:27;;;;;;;8.13;5.78;;;;;;;11.69;100.00;101886.03;5095101;28;20043;-79
2023/08/10 04:05:14;;;;;;;10.05;5.45;;;;;;;11.73;100.00;101897.19;5094186;28;20522;-79
2023/08/10 04:07:40;;;;;;;8.18;4.90;;;;;;;11.74;100.00;101891.63;5095460;28;20028;-79
2023/08/10 04:13:27;;;;;;;6.68;5.03;;;;;;;11.76;100.00;101886.91;5105096;28;20507;-79
2023/08/10 04:15:53;;;;;;;6.80;5.03;;;;;;;11.73;100.00;101891.81;5102596;28;20056;-79
2023/08/10 04:18:18;;;;;;;6.25;4.80;;;;;;;11.69;100.00;101898.59;5101887;28;20020;-81
2023/08/10 04:27:55;;;;;;;13.80;5.60;;;;;;;11.56;100.00;101906.53;5092061;28;20036;-79
2023/08/10 04:33:42;;;;;;;9.25;4.80;;;;;;;11.59;100.00;101906.16;5092005;28;20038;-80
2023/08/10 04:36:08;;;;;;;7.20;4.80;;;;;;;11.62;100.00;101906.59;5091843;28;20464;-80
2023/08/10 04:41:55;;;;;;;9.80;5.85;;;;;;;11.61;100.00;101912.16;5091630;28;20035;-81
2023/08/10 04:44:20;;;;;;;9.10;5.40;;;;;;;11.60;100.00;101915.84;5091357;28;20392;-81
2023/08/10 04:46:46;;;;;;;11.30;5.65;;;;;;;11.57;100.00;101919.75;5090582;28;20044;-81
2023/08/10 04:49:11;;;;;;;10.70;6.28;;;;;;;11.53;100.00;101918.47;5091427;28;20040;-82
2023/08/10 04:51:36;;;;;;;10.57;5.90;;;;;;;11.58;100.00;101917.91;5091226;28;20468;-81
2023/08/10 04:54:02;;;;;;;8.00;5.57;;;;;;;11.64;100.00;101931.34;5072530;28;20281;-81
2023/08/10 04:56:27;;;;;;;9.30;5.93;;;;;;;11.64;100.00;101931.34;5091197;28;20266;-82
2023/08/10 04:58:52;;;;;;;8.73;5.65;;;;;;;11.64;100.00;101930.50;5073113;28;20028;-81
2023/08/10 05:01:18;;;;;;;11.17;5.90;;;;;;;11.67;100.00;101933.63;5072803;28;20043;-82
2023/08/10 05:03:43;;;;;;;11.10;6.43;;;;;;;11.71;100.00;101928.72;5076082;28;20326;-82
2023/08/10 05:06:08;;;;;;;12.60;6.60;;;;;;;11.79;100.00;101933.94;5076035;28;20812;-82
2023/08/10 05:08:33;;;;;;;9.33;6.00;;;;;;;11.87;100.00;101928.47;5094653;28;20027;-82
2023/08/10 05:14:21;;;;;;;8.48;5.78;;;;;;;12.09;100.00;101924.66;5094742;28;20069;-82
2023/08/10 05:24:11;;;;;;;8.48;6.68;;;;;;;12.23;100.00;101920.22;5095090;28;20073;-81
2023/08/10 05:29:58;;;;;;;10.13;6.90;;;;;;;12.50;100.00;101925.72;5094697;28;20430;-81
2023/08/10 05:35:46;;;;;;;9.63;6.97;;;;;;;12.80;100.00;101926.22;5094599;28;20069;-81
2023/08/10 05:41:33;;;;;;;12.93;7.85;;;;;;;13.23;100.00;101922.22;5094658;28;20499;-81
2023/08/10 05:47:20;;;;;;;15.38;9.25;;;;;;;14.84;100.00;101922.53;5094486;28;20039;-82
2023/08/10 05:53:07;;;;;;;9.05;7.15;;;;;;;17.17;100.00;101930.78;5094498;28;20058;-80
2023/08/10 05:58:54;;;;;;;10.50;7.38;;;;;;;18.68;100.00;101929.13;5094245;28;20050;-82
2023/08/10 06:04:41;;;;;;;9.27;6.80;;;;;;;19.96;100.00;101931.09;5094430;28;20074;-82
2023/08/10 06:10:28;;;;;;;12.23;6.38;;;;;;;20.50;100.00;101933.16;5094122;28;20043;-81
2023/08/10 06:16:15;;;;;;;9.00;6.47;;;;;;;20.12;100.00;101932.13;5094151;28;20315;-83
2023/08/10 06:22:02;;;;;;;10.52;6.72;;;;;;;19.79;100.00;101925.69;5094054;28;20061;-83
2023/08/10 06:27:49;;;;;;;11.95;7.07;;;;;;;19.10;100.00;101941.34;5093848;28;20047;-82
2023/08/10 06:33:37;;;;;;;11.25;7.60;;;;;;;18.64;100.00;101944.25;5096248;28;20047;-81
2023/08/10 06:42:58;;;;;;;11.13;6.63;;;;;;;22.40;100.00;101932.59;5098074;28;20042;-86
2023/08/10 06:48:45;;;;;;;9.40;5.95;;;;;;;23.58;88.80;101927.13;5093124;28;20043;-78
2023/08/10 06:54:32;;;;;;;9.50;6.28;;;;;;;24.85;81.86;101931.31;5093441;28;20079;-81
2023/08/10 07:00:22;;;;;;;8.23;5.93;;;;;;;26.51;75.24;101928.16;5092773;28;20077;-85
2023/08/10 07:06:09;;;;;;;10.25;5.50;;;;;;;27.42;66.55;101925.97;5091653;28;20042;-83
2023/08/10 07:11:56;;;;;;;6.75;5.38;;;;;;;28.10;63.13;101927.22;5092663;28;20078;-81
2023/08/10 07:17:43;;;;;;;7.00;5.05;;;;;;;28.94;59.83;101929.59;5092792;28;20070;-83
2023/08/10 07:23:30;;;;;;;10.23;5.97;;;;;;;29.60;53.99;101925.19;5092257;28;20346;-83
2023/08/10 07:29:17;;;;;;;9.00;4.30;;;;;;;29.49;47.65;101945.88;5092174;28;20043;-84
2023/08/10 07:35:04;;;;;;;7.63;4.68;;;;;;;30.73;43.41;101942.97;5092254;28;20281;-83
2023/08/10 07:40:51;;;;;;;5.00;3.90;;;;;;;30.76;43.61;101937.59;5092311;28;20127;-82
2023/08/10 07:46:38;;;;;;;7.70;4.32;;;;;;;31.72;39.95;101947.44;5091968;28;20181;-83
2023/08/10 07:52:26;;;;;;;7.22;3.80;;;;;;;33.65;35.97;101950.19;5091909;28;20039;-83
2023/08/10 07:58:15;;;;;;;5.60;2.90;;;;;;;33.25;33.88;101949.91;5093638;28;20539;-81
2023/08/10 08:04:02;;;;;;;4.03;2.80;;;;;;;34.14;31.63;101951.06;5094233;28;20051;-80
2023/08/10 08:09:49;;;;;;;3.77;2.10;;;;;;;35.15;28.42;101957.72;5093627;28;20051;-80
2023/08/10 08:15:38;;;;;;;3.95;2.28;;;;;;;34.17;27.07;101957.88;5094216;28;20047;-80
2023/08/10 08:21:28;;;;;;;4.05;2.08;;;;;;;33.81;27.56;101947.53;5094750;28;20138;-79
2023/08/10 08:27:15;;;;;;;3.57;2.30;;;;;;;34.44;30.29;101943.31;5096703;28;20120;-80
2023/08/10 08:36:23;;;;;;;3.50;2.20;;;;;;;34.71;26.14;101955.63;5092739;28;20404;-79
2023/08/10 08:42:11;;;;;;;3.90;2.60;;;;;;;35.13;26.97;101960.84;5102165;28;20081;-79
2023/08/10 08:51:20;;;;;;;2.38;1.92;;;;;;;33.68;29.60;101957.00;5096194;28;20175;-79
2023/08/10 08:57:07;;;;;;;4.20;1.90;;;;;;;29.21;34.00;101948.75;5095420;28;20446;-78
2023/08/10 09:02:55;;;;;;;9.25;2.63;;;;;;;27.57;40.69;101943.31;5096854;28;20126;-81
2023/08/10 09:08:42;;;;;;;3.92;1.98;;;;;;;27.00;43.02;101924.19;5095299;28;20051;-78
2023/08/10 09:14:29;;;;;;;4.95;2.00;;;;;;;27.01;42.80;101914.03;5094584;28;20055;-80
2023/08/10 09:20:24;;;;;;;4.80;2.40;;;;;;;26.73;43.98;101918.53;5094513;28;20277;-80
2023/08/10 09:26:13;;;;;;;3.22;2.03;;;;;;;26.96;43.94;101914.09;5094543;28;20494;-79
2023/08/10 09:32:01;;;;;;;3.63;2.13;;;;;;;26.93;44.92;101920.16;5098527;28;20038;-80
2023/08/10 09:37:48;;;;;;;4.32;2.35;;;;;;;26.94;43.74;101913.56;5095519;28;20426;-79
2023/08/10 09:43:36;;;;;;;4.25;2.30;;;;;;;26.88;43.45;101925.72;5096562;28;20070;-80
2023/08/10 09:49:23;;;;;;;3.33;1.98;;;;;;;26.49;50.08;101918.59;5100163;28;20118;-79
2023/08/10 09:55:11;;;;;;;3.33;2.10;;;;;;;25.66;50.91;101914.28;5096500;28;20078;-79
2023/08/10 10:00:58;;;;;;;4.38;2.50;;;;;;;25.15;53.65;101909.25;5095526;28;20043;-79
2023/08/10 10:06:47;;;;;;;4.53;2.28;;;;;;;25.41;52.80;101912.59;5093957;28;20043;-77
2023/08/10 10:12:35;;;;;;;4.50;2.58;;;;;;;25.72;54.25;101907.66;5094158;28;20495;-79
2023/08/10 10:18:24;;;;;;;4.88;2.60;;;;;;;25.79;52.40;101923.78;5097838;28;20089;-78
2023/08/10 10:24:14;;;;;;;3.38;2.50;;;;;;;25.30;54.52;101930.22;5095239;28;20042;-79
2023/08/10 10:30:12;;;;;;;4.57;2.73;;;;;;;25.41;54.02;101934.50;5107979;28;20045;-80
2023/08/10 10:39:21;;;;;;;4.03;2.47;;;;;;;25.62;53.97;101911.31;5094778;28;20039;-77
2023/08/10 10:45:14;;;;;;;5.93;2.40;;;;;;;26.17;50.43;101917.31;5094405;28;20038;-78
2023/08/10 10:51:03;;;;;;;4.70;2.63;;;;;;;26.48;51.73;101917.78;5093242;28;20211;-77
2023/08/10 10:56:50;;;;;;;3.60;2.55;;;;;;;26.97;48.53;101919.28;5093239;28;20043;-79
2023/08/10 11:02:39;;;;;;;4.40;2.70;;;;;;;27.64;50.59;101908.84;5093258;28;20039;-77
2023/08/10 11:08:26;;;;;;;6.43;2.38;;;;;;;27.98;48.45;101913.97;5092815;28;20039;-77
2023/08/10 11:14:13;;;;;;;5.63;2.80;;;;;;;28.48;45.29;101907.75;5091961;28;20516;-78
2023/08/10 11:20:00;;;;;;;5.68;2.80;;;;;;;29.17;44.70;101898.13;5092418;28;20043;-76
2023/08/10 11:25:50;;;;;;;4.55;2.90;;;;;;;28.69;45.16;101914.44;5092766;28;20096;-77
2023/08/10 11:31:38;;;;;;;5.93;2.92;;;;;;;28.15;46.19;101904.28;5092539;28;20495;-78
2023/08/10 11:37:30;;;;;;;4.45;2.72;;;;;;;28.18;48.25;101892.69;5092501;28;20081;-76
2023/08/10 11:43:20;;;;;;;5.72;3.42;;;;;;;28.18;45.09;101881.69;5092487;28;20508;-80
2023/08/10 11:49:07;;;;;;;5.43;3.40;;;;;;;28.44;43.71;101892.97;5091937;28;20134;-78
2023/08/10 11:54:55;;;;;;;10.23;3.10;;;;;;;29.23;45.89;101885.06;5092115;28;20082;-79
2023/08/10 12:00:46;;;;;;;4.82;3.00;;;;;;;32.01;39.07;101894.09;5091281;28;20051;-80
2023/08/10 12:06:39;;;;;;;6.45;2.90;;;;;;;31.73;36.30;101901.22;5092304;28;20097;-80
2023/08/10 12:12:26;;;;;;;5.25;3.03;;;;;;;30.39;39.27;101889.31;5091756;28;20074;-79
2023/08/10 12:18:15;;;;;;;4.47;3.78;;;;;;;28.83;40.95;101881.31;5092094;28;20293;-79
2023/08/10 12:27:23;;;;;;;4.53;3.33;;;;;;;29.01;41.34;101879.56;5091558;28;20066;-79
2023/08/10 12:33:11;;;;;;;5.13;3.40;;;;;;;28.30;45.25;101873.72;5091422;28;20074;-80
2023/08/10 12:39:01;;;;;;;5.25;3.40;;;;;;;28.71;42.87;101876.38;5091605;28;20039;-79
2023/08/10 12:44:48;;;;;;;6.80;3.80;;;;;;;28.97;45.38;101873.88;5091539;28;20400;-80
2023/08/10 12:50:36;;;;;;;6.35;3.30;;;;;;;30.03;43.02;101872.97;5091170;28;20178;-79
2023/08/10 12:53:01;;;;;;;4.55;3.67;;;;;;;30.69;41.19;101878.47;5090214;28;20123;-80
2023/08/10 12:58:48;;;;;;;5.57;3.35;;;;;;;32.38;35.27;101869.44;5091133;28;20320;-79
2023/08/10 13:04:35;;;;;;;5.35;3.63;;;;;;;31.08;41.67;101878.25;5091219;28;20100;-80
2023/08/10 13:10:23;;;;;;;5.47;3.40;;;;;;;29.83;42.45;101868.03;5091116;28;20319;-79
2023/08/10 13:16:10;;;;;;;5.18;3.28;;;;;;;30.09;41.65;101873.66;5091359;28;20396;-77
2023/08/10 13:21:57;;;;;;;3.90;3.10;;;;;;;28.46;45.70;101872.28;5091095;28;20153;-78
2023/08/10 13:27:45;;;;;;;5.78;3.53;;;;;;;28.07;49.14;101862.66;5094085;28;20102;-79
2023/08/10 13:33:32;;;;;;;4.65;3.60;;;;;;;29.38;47.43;101861.78;5094656;28;20042;-82
2023/08/10 13:39:26;;;;;;;5.95;3.63;;;;;;;29.11;45.20;101866.34;5094132;28;20277;-80
2023/08/10 13:45:13;;;;;;;3.88;3.00;;;;;;;28.66;49.29;101866.31;5093691;28;20066;-80
2023/08/10 13:51:01;;;;;;;4.72;2.90;;;;;;;27.42;54.21;101856.47;5093487;28;20106;-80
2023/08/10 13:57:03;;;;;;;6.93;3.10;;;;;;;26.97;53.20;101849.81;5093847;28;20319;-80
2023/08/10 14:02:50;;;;;;;4.07;2.83;;;;;;;26.40;56.76;101835.34;5094163;28;20047;-81
2023/08/10 14:08:37;;;;;;;5.38;3.33;;;;;;;26.06;56.79;101841.78;5093713;28;20376;-76
2023/08/10 14:14:26;;;;;;;5.72;3.22;;;;;;;25.71;62.27;101840.28;5093967;28;20451;-77
2023/08/10 14:20:13;;;;;;;5.63;3.40;;;;;;;25.58;65.10;101833.53;5094014;28;20747;-79
2023/08/10 14:25:59;;;;;;;7.13;3.00;;;;;;;25.58;61.65;101833.53;5093150;28;20308;-75
2023/08/10 14:31:46;;;;;;;5.88;3.00;;;;;;;25.39;59.61;101835.38;5093229;28;20101;-76
2023/08/10 14:37:33;;;;;;;4.80;3.05;;;;;;;25.40;65.82;101834.28;5092981;28;20277;-77
2023/08/10 14:43:20;;;;;;;5.60;2.88;;;;;;;25.31;60.18;101814.13;5093088;28;20089;-77
2023/08/10 14:49:07;;;;;;;3.90;2.85;;;;;;;25.24;65.42;101810.91;5093759;28;20043;-81
2023/08/10 14:54:54;;;;;;;4.38;3.13;;;;;;;25.31;70.58;101808.63;5093087;28;20047;-80
2023/08/10 15:00:41;;;;;;;5.90;2.67;;;;;;;25.42;64.72;101818.38;5093196;28;20553;-79
2023/08/10 15:06:29;;;;;;;5.10;2.72;;;;;;;25.62;62.64;101815.41;5093350;28;20291;-78
2023/08/10 15:12:17;;;;;;;4.35;2.80;;;;;;;25.60;64.62;101809.41;5092340;28;20153;-77
2023/08/10 15:18:04;;;;;;;2.97;2.53;;;;;;;25.64;64.92;101812.38;5092582;28;20133;-81
2023/08/10 15:23:53;;;;;;;4.70;2.55;;;;;;;25.72;63.37;101816.44;5092714;28;20051;-78
2023/08/10 15:29:40;;;;;;;4.57;2.55;;;;;;;25.79;67.23;101804.03;5092512;28;20507;-80
2023/08/10 15:35:26;;;;;;;5.55;2.50;;;;;;;25.58;63.78;101803.41;5092338;28;20638;-82
2023/08/10 15:41:14;;;;;;;4.47;2.72;;;;;;;25.67;63.90;101792.66;5092517;28;20089;-84
2023/08/10 15:47:03;;;;;;;3.50;2.42;;;;;;;25.81;62.20;101784.56;5091200;28;20121;-78
2023/08/10 15:52:50;;;;;;;4.18;2.53;;;;;;;25.69;62.44;101775.91;5092357;28;20097;-78
2023/08/10 15:58:37;;;;;;;4.75;2.45;;;;;;;25.64;60.83;101777.56;5092108;28;20043;-79
2023/08/10 16:04:24;;;;;;;2.50;1.98;;;;;;;25.68;60.77;101777.84;5091869;28;20788;-78
2023/08/10 16:10:11;;;;;;;4.47;2.47;;;;;;;25.66;62.04;101771.81;5091959;28;20106;-77
2023/08/10 16:15:58;;;;;;;6.50;2.97;;;;;;;25.59;60.38;101772.16;5091667;28;20804;-78
2023/08/10 16:21:45;;;;;;;3.60;2.40;;;;;;;25.58;64.17;101775.19;5091670;28;20643;-79
2023/08/10 16:24:11;;;;;;;3.85;2.60;;;;;;;25.56;62.84;101775.50;5091480;28;20028;-76
2023/08/10 16:29:58;;;;;;;5.60;2.58;;;;;;;25.12;63.66;101772.94;5091671;28;20055;-78
2023/08/10 16:35:44;;;;;;;2.38;2.05;;;;;;;25.05;62.83;101785.34;5091556;28;20343;-76
2023/08/10 16:41:31;;;;;;;2.70;2.30;;;;;;;25.13;62.59;101780.06;5091315;28;20051;-79
2023/08/10 16:50:41;;;;;;;3.53;2.40;;;;;;;25.09;67.26;101787.22;5092778;28;20043;-80
2023/08/10 16:56:28;;;;;;;3.55;2.60;;;;;;;25.17;70.03;101788.53;5091614;28;20075;-80
2023/08/10 17:02:15;;;;;;;4.85;2.50;;;;;;;25.01;65.96;101793.31;5094797;28;20085;-81
2023/08/10 17:08:03;;;;;;;3.17;2.50;;;;;;;24.99;68.92;101796.34;5094385;28;20351;-79
2023/08/10 17:13:49;;;;;;;4.38;2.35;;;;;;;24.71;67.50;101789.72;5094967;28;20051;-79
2023/08/10 17:19:36;;;;;;;3.85;2.80;;;;;;;24.66;71.15;101791.66;5094756;28;20316;-80
2023/08/10 17:25:23;;;;;;;4.25;2.80;;;;;;;24.55;71.57;101788.19;5094530;28;20268;-80
2023/08/10 17:31:10;;;;;;;4.03;2.80;;;;;;;24.53;71.72;101782.19;5094221;28;20067;-79
2023/08/10 17:36:57;;;;;;;7.57;2.90;;;;;;;24.33;70.93;101785.88;5094197;28;20043;-78
2023/08/10 17:42:44;;;;;;;6.85;3.30;;;;;;;24.15;75.25;101772.03;5094057;28;20078;-81
2023/08/10 17:48:31;;;;;;;3.55;3.08;;;;;;;24.04;74.90;101774.81;5093934;28;20074;-79
2023/08/10 17:54:18;;;;;;;7.05;3.15;;;;;;;23.85;76.40;101768.34;5093960;28;20789;-79
2023/08/10 18:00:10;;;;;;;4.57;3.00;;;;;;;23.73;76.59;101768.69;5094037;28;20539;-78
2023/08/10 18:05:57;;;;;;;5.10;3.00;;;;;;;23.55;77.65;101765.72;5093959;28;20099;-79
2023/08/10 18:11:44;;;;;;;6.43;3.00;;;;;;;23.41;80.46;101763.56;5092504;28;20297;-81
2023/08/10 18:17:31;;;;;;;5.30;3.08;;;;;;;23.30;80.63;101756.50;5096805;28;20303;-80
2023/08/10 18:23:21;;;;;;;5.00;3.08;;;;;;;23.24;80.87;101767.72;5093585;28;20050;-81
2023/08/10 18:29:10;;;;;;;4.97;3.10;;;;;;;23.13;83.02;101766.88;5093445;28;20173;-81
2023/08/10 18:34:57;;;;;;;4.03;3.17;;;;;;;23.01;89.06;101767.19;5093178;28;20054;-82
2023/08/10 18:40:44;;;;;;;4.68;3.00;;;;;;;22.44;100.00;101770.16;5092826;28;20277;-78
2023/08/10 18:49:58;;;;;;;5.22;3.28;;;;;;;21.59;100.00;101766.84;5093034;28;20117;-79
2023/08/10 18:55:49;;;;;;;6.32;3.75;;;;;;;21.25;100.00;101775.38;5092271;28;20047;-77
2023/08/10 19:01:35;;;;;;;4.35;3.35;;;;;;;20.99;100.00;101770.81;5092871;28;20682;-79
2023/08/10 19:07:22;;;;;;;4.38;3.55;;;;;;;20.63;100.00;101778.69;5092367;28;20043;-77
2023/08/10 19:13:09;;;;;;;8.13;3.47;;;;;;;20.37;100.00;101787.63;5092559;28;20034;-77
2023/08/10 19:18:56;;;;;;;7.57;4.35;;;;;;;20.40;100.00;101781.72;5092258;28;20055;-78
2023/08/10 19:24:44;;;;;;;4.13;3.58;;;;;;;20.38;100.00;101789.28;5092648;28;20043;-80
2023/08/10 19:30:31;;;;;;;10.05;4.25;;;;;;;20.18;100.00;101791.75;5092698;28;20551;-78
2023/08/10 19:36:17;;;;;;;4.35;3.00;;;;;;;19.91;100.00;101794.44;5092452;28;20444;-80
2023/08/10 19:42:04;;;;;;;4.90;3.95;;;;;;;19.83;100.00;101789.44;5092571;28;20166;-79
2023/08/10 19:47:53;;;;;;;9.85;3.70;;;;;;;19.71;100.00;101792.31;5092307;28;20469;-79
2023/08/10 19:50:22;;;;;;;7.78;3.58;;;;;;;19.67;100.00;101800.13;5090928;28;20565;-80
2023/08/10 19:56:09;;;;;;;5.90;3.60;;;;;;;19.41;100.00;101801.63;5092087;28;20047;-78
2023/08/10 20:01:56;;;;;;;5.07;3.67;;;;;;;19.33;100.00;101810.16;5091543;28;20419;-77
2023/08/10 20:07:43;;;;;;;5.50;3.47;;;;;;;19.22;100.00;101807.56;5091374;28;20280;-76
2023/08/10 20:13:30;;;;;;;4.97;3.33;;;;;;;19.12;100.00;101808.25;5091271;28;20344;-79
2023/08/10 20:19:16;;;;;;;5.15;3.45;;;;;;;18.80;100.00;101824.25;5092464;28;20085;-78
2023/08/10 20:25:08;;;;;;;4.05;3.63;;;;;;;18.55;100.00;101835.41;5091143;28;20419;-77
2023/08/10 20:30:57;;;;;;;7.28;4.13;;;;;;;18.48;100.00;101834.72;5091624;28;20392;-77
2023/08/10 20:36:44;;;;;;;7.90;4.05;;;;;;;18.50;100.00;101833.44;5095316;28;20046;-77
2023/08/10 20:42:31;;;;;;;5.07;3.67;;;;;;;18.44;100.00;101828.13;5095137;28;20300;-79
2023/08/10 20:48:18;;;;;;;10.45;4.93;;;;;;;18.52;100.00;101833.19;5095374;28;20089;-79
2023/08/10 20:54:06;;;;;;;7.18;3.60;;;;;;;18.55;100.00;101827.28;5094495;28;20092;-79
2023/08/10 20:59:53;;;;;;;11.38;4.82;;;;;;;18.49;100.00;101814.69;5094485;28;20088;-76
2023/08/10 21:05:40;;;;;;;5.47;4.97;;;;;;;18.49;100.00;101817.41;5094288;28;20047;-76
2023/08/10 21:11:27;;;;;;;9.55;6.72;;;;;;;18.37;100.00;101811.22;5094515;28;20086;-79
2023/08/10 21:17:15;;;;;;;9.35;8.38;;;;;;;18.44;100.00;101814.59;5094727;28;20097;-78
2023/08/10 21:23:02;;;;;;;12.70;7.40;;;;;;;18.36;100.00;101807.69;5094106;28;20132;-77
2023/08/10 21:28:49;;;;;;;7.38;5.47;;;;;;;18.35;100.00;101802.53;5094045;28;20159;-77
2023/08/10 21:34:36;;;;;;;12.45;7.88;;;;;;;18.29;100.00;101814.31;5094487;28;20039;-76
2023/08/10 21:40:27;;;;;;;10.38;7.43;;;;;;;18.36;100.00;101825.81;5094608;28;20031;-76
2023/08/10 21:46:13;;;;;;;9.20;7.13;;;;;;;18.30;100.00;101819.50;5094054;28;20101;-77
2023/08/10 21:52:01;;;;;;;10.48;6.82;;;;;;;18.31;100.00;101823.03;5093608;28;20316;-79
2023/08/10 21:57:48;;;;;;;13.32;8.48;;;;;;;18.32;100.00;101808.41;5093932;28;20105;-77
2023/08/10 22:00:14;;;;;;;13.23;7.83;;;;;;;18.29;100.00;101800.78;5092599;28;20477;-76
2023/08/10 22:06:01;;;;;;;8.32;6.22;;;;;;;18.06;100.00;101809.81;5093718;28;20058;-77
2023/08/10 22:11:48;;;;;;;9.07;7.57;;;;;;;17.88;100.00;101808.88;5093203;28;20269;-76
2023/08/10 22:14:14;;;;;;;9.82;8.80;;;;;;;17.91;100.00;101810.28;5092803;28;20040;-76
2023/08/10 22:20:00;;;;;;;8.65;7.47;;;;;;;17.87;100.00;101798.31;5093665;28;20081;-76
2023/08/10 22:25:48;;;;;;;12.00;8.45;;;;;;;17.76;100.00;101802.69;5093052;28;20602;-77
2023/08/10 22:31:34;;;;;;;9.30;7.82;;;;;;;17.72;100.00;101795.28;5093206;28;20292;-78
2023/08/10 22:37:21;;;;;;;9.73;8.05;;;;;;;17.59;100.00;101805.25;5093021;28;20649;-80
2023/08/10 22:43:08;;;;;;;9.60;7.32;;;;;;;17.42;100.00;101808.94;5093223;28;20278;-77
2023/08/10 22:48:54;;;;;;;9.05;7.43;;;;;;;17.37;100.00;101806.13;5093206;28;20046;-78
2023/08/10 22:54:42;;;;;;;9.27;7.53;;;;;;;17.15;100.00;101795.88;5092900;28;20273;-78
2023/08/10 23:00:28;;;;;;;9.65;8.38;;;;;;;17.08;100.00;101799.75;5093192;28;20533;-77
2023/08/10 23:06:15;;;;;;;9.52;8.30;;;;;;;17.01;100.00;101802.56;5093263;28;20120;-77
2023/08/10 23:12:03;;;;;;;9.20;7.68;;;;;;;16.94;100.00;101793.75;5092911;28;20062;-77
2023/08/10 23:17:50;;;;;;;8.70;7.47;;;;;;;16.79;100.00;101791.50;5092551;28;20545;-77
2023/08/10 23:23:37;;;;;;;11.48;8.15;;;;;;;16.64;100.00;101786.47;5091941;28;20292;-78
2023/08/10 23:29:24;;;;;;;11.45;9.10;;;;;;;16.73;100.00;101793.22;5092240;28;20086;-77
2023/08/10 23:35:12;;;;;;;9.70;8.05;;;;;;;16.67;100.00;101782.53;5092554;28;20084;-78
2023/08/10 23:41:00;;;;;;;9.18;8.18;;;;;;;16.56;100.00;101772.50;5092496;28;20486;-77
2023/08/10 23:46:47;;;;;;;8.07;7.13;;;;;;;16.55;100.00;101777.06;5092627;28;20051;-77
2023/08/10 23:52:35;;;;;;;11.07;8.15;;;;;;;16.52;100.00;101780.25;5092459;28;20104;-77
2023/08/10 23:58:22;;;;;;;9.05;7.40;;;;;;;16.52;100.00;101772.13;5092376;28;20039;-77
